Terminal Aerodrome Forecast
Issued by NWS Charleston, WV

Current Version | Previous Version | Text Only | Print | Product List | Glossary Off
Versions: 1 2 3 4 5 6 7 8 9 10 11 12 13 14 15 16 17 18 19 20 21 22 23 24 25

000
FTUS41 KRLX 201500 CCA
TAFEKN
TAF COR
KEKN 201503Z 2015/2112 17010G20KT P6SM BKN035
     FM201700 22013G26KT P6SM VCTS BKN050CB
     FM201900 23013G26KT P6SM SHRA VCTS BKN040CB
     FM202000 24012G25KT 5SM TSRA BR OVC040CB
     FM202200 24012G24KT 4SM SHRA BR VCTS OVC035CB
     FM210000 25012G23KT 5SM SHRA BR BKN035
     FM210200 26008G13KT P6SM BKN035
     FM210400 27006KT 6SM BR BKN025
     FM210600 28006KT P6SM BKN015=

USA.gov is the U.S. government's official web portal to all federal, state and local government web resources and services.